METAR Data
IDs: Format: Raw Decoded Include TAF

Data at: 1946 UTC 23 Oct 2021

METAR for:KAEJ (Buena Vista/Central, CO, US)
Text:KAEJ 231935Z AUTO 15016G20KT 10SM CLR 16/M10 A2986 RMK AO2 T01621102
Temperature: 16.2°C ( 61°F)
Dewpoint:-10.2°C ( 14°F) [RH = 15%]
Pressure (altimeter):29.86 inches Hg (1011.3 mb)
Winds:from the SSE (150 degrees) at 18 MPH (16 knots; 8.2 m/s) gusting to 23 MPH (20 knots; 10.3 m/s)
Visibility:10 or more sm (16+ km)
Ceiling:at least 12,000 feet AGL
Clouds:sky clear below 12,000 feet AGL
QC Flag:automated observation with no human augmentation